Time;durP1;ratioP1;P1;durP2;ratioP2;P2;SDS_P1;SDS_P2;PMS_P1;PMS_P2;Temp;Humidity;BMP_temperature;BMP_pressure;BME280_temperature;BME280_humidity;BME280_pressure;Samples;Min_cycle;Max_cycle;Signal;HPM_P1;HPM_P2
2022/07/29 00:02:20;;;;;;;3.03;2.10;;;;;;;24.99;48.42;100023.41;5014170;28;20389;-73
2022/07/29 00:04:46;;;;;;;2.50;2.28;;;;;;;25.01;47.98;100021.91;5014693;28;20505;-73
2022/07/29 00:07:11;;;;;;;1.90;1.80;;;;;;;25.02;48.25;100017.16;5014683;28;20508;-73
2022/07/29 00:09:36;;;;;;;4.45;2.10;;;;;;;25.00;48.61;100022.22;5014582;28;20397;-73
2022/07/29 00:12:02;;;;;;;2.17;2.00;;;;;;;25.00;48.76;100019.47;5029889;28;20469;-73
2022/07/29 00:14:28;;;;;;;2.28;2.05;;;;;;;24.85;49.21;100021.03;5014570;28;20451;-72
2022/07/29 00:16:53;;;;;;;2.50;1.85;;;;;;;24.84;49.37;100018.59;5014561;28;20393;-73
2022/07/29 00:19:19;;;;;;;2.60;2.03;;;;;;;24.80;49.59;100010.94;5012674;28;20624;-73
2022/07/29 00:21:44;;;;;;;2.60;2.20;;;;;;;24.76;49.59;100020.34;5014568;28;20393;-73
2022/07/29 00:24:09;;;;;;;2.50;1.90;;;;;;;24.72;49.69;100017.44;5005920;28;20798;-73
2022/07/29 00:26:34;;;;;;;2.47;2.07;;;;;;;24.73;50.37;100016.28;5007877;28;20869;-73
2022/07/29 00:29:01;;;;;;;2.77;2.40;;;;;;;24.68;50.33;100013.75;5004290;28;20410;-73
2022/07/29 00:31:26;;;;;;;5.23;1.90;;;;;;;24.64;50.55;100014.78;4999039;28;20396;-73
2022/07/29 00:33:52;;;;;;;2.00;1.97;;;;;;;24.62;50.62;100011.56;5014178;28;20446;-73
2022/07/29 00:36:17;;;;;;;3.83;2.38;;;;;;;24.65;50.63;100008.91;5013945;28;20500;-73
2022/07/29 00:38:44;;;;;;;2.23;2.10;;;;;;;24.61;50.59;100005.22;5013195;28;20887;-73
2022/07/29 00:41:12;;;;;;;2.33;2.13;;;;;;;24.55;50.81;100000.28;5007968;28;20407;-73
2022/07/29 00:43:38;;;;;;;2.03;1.77;;;;;;;24.53;51.03;100005.38;5014055;28;20435;-73
2022/07/29 00:46:03;;;;;;;2.03;1.93;;;;;;;24.52;51.34;99999.00;5013945;28;20389;-73
2022/07/29 00:48:28;;;;;;;2.00;1.80;;;;;;;24.57;51.25;99998.75;5014050;28;20393;-73
2022/07/29 00:50:55;;;;;;;2.00;1.90;;;;;;;24.57;51.30;99998.75;5014024;28;20395;-73
2022/07/29 00:53:21;;;;;;;3.10;1.98;;;;;;;24.53;51.21;100000.63;5013974;28;20815;-73
2022/07/29 00:55:46;;;;;;;2.77;2.27;;;;;;;24.48;51.30;99997.28;5013858;28;20388;-73
2022/07/29 00:58:13;;;;;;;2.00;1.80;;;;;;;24.45;51.63;100001.56;5013723;28;20478;-73
2022/07/29 01:00:40;;;;;;;3.67;2.42;;;;;;;24.43;51.81;100000.28;5012475;28;20424;-73
2022/07/29 01:03:06;;;;;;;3.05;2.28;;;;;;;24.41;51.89;99999.81;5013744;28;20404;-73
2022/07/29 01:05:32;;;;;;;3.97;2.17;;;;;;;24.42;51.53;100001.44;5013747;28;20757;-73
2022/07/29 01:07:57;;;;;;;4.80;2.65;;;;;;;24.36;51.24;100000.06;5013701;28;20385;-73
2022/07/29 01:10:24;;;;;;;2.70;2.33;;;;;;;24.33;51.36;99996.03;5013356;28;20876;-73
2022/07/29 01:12:52;;;;;;;2.58;2.33;;;;;;;24.23;50.99;100002.03;5012711;28;20495;-73
2022/07/29 01:15:18;;;;;;;3.03;2.50;;;;;;;24.09;51.45;99994.06;5012181;28;20401;-73
2022/07/29 01:17:51;;;;;;;2.83;2.30;;;;;;;23.98;52.03;99989.31;5013025;28;20404;-73
2022/07/29 01:20:30;;;;;;;2.38;2.28;;;;;;;23.91;52.23;99991.84;5013346;28;20857;-73
2022/07/29 01:23:18;;;;;;;3.92;2.05;;;;;;;23.89;52.31;99985.84;5013296;28;20880;-73
2022/07/29 01:26:03;;;;;;;2.42;2.15;;;;;;;23.89;51.92;99989.44;5012591;28;21133;-74
2022/07/29 01:28:56;;;;;;;2.60;2.40;;;;;;;23.89;52.04;99994.16;4997372;28;20896;-73
2022/07/29 01:31:32;;;;;;;2.65;2.42;;;;;;;23.84;52.52;99992.44;5005448;28;20481;-73
2022/07/29 01:34:02;;;;;;;2.38;2.20;;;;;;;23.83;52.44;99990.00;5011840;28;20403;-73
2022/07/29 01:36:33;;;;;;;2.63;2.30;;;;;;;23.84;53.04;99988.84;5012804;28;20819;-73
2022/07/29 01:39:06;;;;;;;2.43;2.20;;;;;;;23.83;52.87;99995.53;5011767;28;20425;-73
2022/07/29 01:41:34;;;;;;;3.13;2.25;;;;;;;23.84;53.18;99997.97;5013007;28;20400;-73
2022/07/29 01:44:09;;;;;;;2.25;2.13;;;;;;;23.84;53.61;99995.19;5012213;28;20399;-73
2022/07/29 01:46:38;;;;;;;2.95;2.78;;;;;;;23.81;53.69;100001.38;5012805;28;20389;-73
2022/07/29 01:49:11;;;;;;;2.40;2.30;;;;;;;23.78;54.21;99996.53;5012617;28;20906;-73
2022/07/29 01:51:46;;;;;;;2.92;2.72;;;;;;;23.73;54.60;99996.78;5012935;28;20392;-73
2022/07/29 01:54:20;;;;;;;2.50;2.30;;;;;;;23.71;55.30;100002.66;5010839;28;20431;-73
2022/07/29 01:56:48;;;;;;;2.60;2.40;;;;;;;23.69;55.52;100001.38;5012689;28;20982;-73
2022/07/29 01:59:17;;;;;;;7.00;2.45;;;;;;;23.69;55.86;100002.19;5012524;28;20919;-73
2022/07/29 02:01:45;;;;;;;2.13;1.98;;;;;;;23.64;56.50;100009.91;5012506;28;20401;-73
2022/07/29 02:04:12;;;;;;;2.25;2.15;;;;;;;23.58;56.84;100006.53;5011559;28;20788;-73
2022/07/29 02:06:40;;;;;;;3.92;2.75;;;;;;;23.59;56.95;100002.63;5012584;28;20428;-73
2022/07/29 02:09:06;;;;;;;2.55;2.40;;;;;;;23.58;57.20;100014.03;5012432;28;20512;-73
2022/07/29 02:11:35;;;;;;;2.58;2.30;;;;;;;23.54;57.36;100015.88;5012415;28;20440;-73
2022/07/29 02:14:01;;;;;;;2.40;2.20;;;;;;;23.54;57.22;100013.13;5012356;28;20447;-73
2022/07/29 02:16:30;;;;;;;2.35;2.25;;;;;;;23.47;57.44;100013.69;5012373;28;20427;-73
2022/07/29 02:18:58;;;;;;;2.85;2.33;;;;;;;23.46;57.47;100006.53;5011436;28;20570;-73
2022/07/29 02:21:26;;;;;;;3.27;2.10;;;;;;;23.45;57.54;100006.84;5012230;28;20401;-73
2022/07/29 02:23:52;;;;;;;3.72;2.50;;;;;;;23.40;57.83;100009.81;5010393;28;20415;-73
2022/07/29 02:26:21;;;;;;;3.07;2.70;;;;;;;23.35;57.99;100016.34;5012144;28;20730;-73
2022/07/29 02:28:48;;;;;;;2.88;2.33;;;;;;;23.35;57.95;100010.03;5012269;28;20438;-73
2022/07/29 02:31:15;;;;;;;2.60;2.35;;;;;;;23.37;57.59;100014.06;5012095;28;20425;-73
2022/07/29 02:33:42;;;;;;;2.88;2.67;;;;;;;23.35;57.47;100012.81;5012059;28;20401;-73
2022/07/29 02:36:07;;;;;;;2.50;2.30;;;;;;;23.29;57.69;100014.94;5011866;28;20463;-73
2022/07/29 02:38:57;;;;;;;4.03;2.53;;;;;;;23.30;57.56;100015.75;5011319;28;20803;-73
2022/07/29 02:41:46;;;;;;;5.30;2.23;;;;;;;23.32;57.54;100011.50;5012079;28;20403;-73
2022/07/29 02:44:18;;;;;;;2.35;2.10;;;;;;;23.34;57.28;100008.41;5012172;28;20401;-73
2022/07/29 02:46:50;;;;;;;3.70;2.55;;;;;;;23.35;56.58;100010.03;5011921;28;20400;-73
2022/07/29 02:49:53;;;;;;;3.50;2.80;;;;;;;23.29;56.96;100014.94;5011995;28;20393;-73
2022/07/29 02:52:27;;;;;;;3.55;2.70;;;;;;;23.26;56.66;100021.16;4989472;28;20404;-73
2022/07/29 02:55:02;;;;;;;4.03;2.78;;;;;;;23.16;56.69;100010.53;5011685;28;20400;-73
2022/07/29 02:57:59;;;;;;;5.23;3.10;;;;;;;23.14;56.60;100024.69;5011827;28;20397;-73
2022/07/29 03:00:28;;;;;;;5.38;2.63;;;;;;;23.10;56.50;100015.47;5005913;28;20486;-73
2022/07/29 03:02:56;;;;;;;2.40;2.25;;;;;;;23.06;56.91;100013.69;4995817;28;20397;-72
2022/07/29 03:05:22;;;;;;;2.63;2.42;;;;;;;22.98;56.99;100014.59;5026900;28;20403;-73
2022/07/29 03:07:54;;;;;;;3.55;2.90;;;;;;;22.92;57.29;100018.72;5011639;28;20483;-73
2022/07/29 03:10:20;;;;;;;3.55;2.70;;;;;;;22.87;57.47;100014.19;5011678;28;20397;-73
2022/07/29 03:12:47;;;;;;;3.28;3.00;;;;;;;22.79;57.88;100025.31;5011122;28;20400;-73
2022/07/29 03:15:13;;;;;;;2.80;2.50;;;;;;;22.78;57.72;100024.50;5011648;28;20389;-73
2022/07/29 03:17:39;;;;;;;2.67;2.42;;;;;;;22.79;57.98;100028.09;5011360;28;20397;-72
2022/07/29 03:20:07;;;;;;;2.97;2.70;;;;;;;22.80;57.69;100024.16;5011487;28;20850;-73
2022/07/29 03:22:32;;;;;;;2.72;2.53;;;;;;;22.83;57.48;100031.78;5011637;28;20733;-73
2022/07/29 03:25:06;;;;;;;3.00;2.60;;;;;;;22.82;57.60;100027.41;5011542;28;20411;-73
2022/07/29 03:27:32;;;;;;;2.90;2.70;;;;;;;22.73;57.91;100030.22;5011657;28;20400;-73
2022/07/29 03:29:57;;;;;;;2.90;2.70;;;;;;;22.57;58.20;100029.16;5011532;28;20412;-73
2022/07/29 03:32:22;;;;;;;2.83;2.70;;;;;;;22.52;58.36;100040.41;5010810;28;20404;-72
2022/07/29 03:34:47;;;;;;;6.47;2.90;;;;;;;22.49;58.46;100032.81;5011540;28;20391;-73
2022/07/29 03:37:13;;;;;;;4.60;2.57;;;;;;;22.51;58.26;100031.31;5009867;28;20425;-73
2022/07/29 03:39:41;;;;;;;3.13;2.83;;;;;;;22.50;58.30;100029.69;5011479;28;20900;-72
2022/07/29 03:42:10;;;;;;;3.17;2.90;;;;;;;22.43;58.34;100034.09;5011720;28;20796;-73
2022/07/29 03:44:36;;;;;;;4.25;2.78;;;;;;;22.32;58.70;100033.72;5011495;28;20495;-73
2022/07/29 03:47:06;;;;;;;4.90;2.63;;;;;;;22.29;58.56;100031.63;5011257;28;20407;-73
2022/07/29 03:49:33;;;;;;;3.17;2.80;;;;;;;22.23;58.52;100036.50;5011316;28;20388;-73
2022/07/29 03:51:59;;;;;;;2.92;2.72;;;;;;;22.20;58.75;100034.41;5010402;28;20877;-72
2022/07/29 03:54:25;;;;;;;4.05;3.45;;;;;;;22.24;58.55;100040.88;5011296;28;20487;-72
2022/07/29 03:56:52;;;;;;;4.57;3.78;;;;;;;22.25;58.57;100036.19;5011275;28;20752;-72
2022/07/29 03:59:20;;;;;;;3.25;2.92;;;;;;;22.28;58.29;100029.16;5011206;28;20417;-72
2022/07/29 04:01:47;;;;;;;5.45;4.20;;;;;;;22.26;58.35;100040.56;5009038;28;20448;-73
2022/07/29 04:04:12;;;;;;;4.38;3.42;;;;;;;22.21;58.57;100041.53;5010589;28;20805;-72
2022/07/29 04:06:42;;;;;;;4.57;3.13;;;;;;;22.07;58.90;100037.38;5011252;28;20482;-72
2022/07/29 04:09:09;;;;;;;3.30;3.00;;;;;;;21.93;59.16;100043.09;5008296;28;20420;-73
2022/07/29 04:11:36;;;;;;;4.15;2.83;;;;;;;21.94;59.31;100041.97;5011280;28;20428;-72
2022/07/29 04:14:03;;;;;;;4.07;3.20;;;;;;;21.94;59.15;100041.97;5012424;28;20396;-73
2022/07/29 04:16:28;;;;;;;7.30;3.42;;;;;;;21.82;59.34;100044.59;5013953;28;20428;-72
2022/07/29 04:18:53;;;;;;;3.17;2.97;;;;;;;21.72;59.62;100047.72;5010274;28;20519;-73
2022/07/29 04:21:19;;;;;;;3.47;2.77;;;;;;;21.72;59.68;100054.03;5013917;28;20412;-72
2022/07/29 04:23:48;;;;;;;4.23;3.53;;;;;;;21.66;59.73;100052.59;5004498;28;20400;-73
2022/07/29 04:26:13;;;;;;;3.75;2.75;;;;;;;21.70;59.69;100053.53;5008503;28;20385;-72
2022/07/29 04:28:40;;;;;;;3.05;2.85;;;;;;;21.71;59.54;100059.88;5013307;28;20776;-73
2022/07/29 04:31:05;;;;;;;3.53;3.10;;;;;;;21.68;59.70;100061.34;5010118;28;20505;-72
2022/07/29 04:33:30;;;;;;;3.80;3.50;;;;;;;21.65;59.73;100056.47;5018277;28;20765;-73
2022/07/29 04:35:56;;;;;;;5.03;3.13;;;;;;;21.49;60.14;100065.59;5011520;28;20419;-73
2022/07/29 04:38:21;;;;;;;3.67;3.37;;;;;;;21.44;60.27;100060.25;5016397;28;20418;-72
2022/07/29 04:40:47;;;;;;;4.32;2.95;;;;;;;21.38;60.28;100064.31;5011777;28;20418;-73
2022/07/29 04:43:12;;;;;;;3.57;3.23;;;;;;;21.33;60.21;100067.25;5014489;28;20409;-73
2022/07/29 04:45:37;;;;;;;3.43;3.20;;;;;;;21.35;60.21;100062.19;5014436;28;20439;-73
2022/07/29 04:48:03;;;;;;;3.60;3.30;;;;;;;21.36;60.06;100066.59;5008516;28;20708;-72
2022/07/29 04:50:28;;;;;;;3.23;3.03;;;;;;;21.33;59.96;100073.56;5013602;28;20441;-72
2022/07/29 04:52:53;;;;;;;3.28;3.00;;;;;;;21.28;60.05;100075.66;5014328;28;20444;-74
2022/07/29 04:55:19;;;;;;;3.57;3.10;;;;;;;21.17;60.30;100073.22;5013007;28;20408;-73
2022/07/29 04:57:44;;;;;;;4.47;3.37;;;;;;;21.25;60.08;100068.84;5000094;28;20410;-74
2022/07/29 05:00:10;;;;;;;3.30;3.00;;;;;;;21.24;59.75;100069.19;4997592;28;20887;-74
2022/07/29 05:02:35;;;;;;;3.67;2.90;;;;;;;21.20;59.83;100075.34;5012917;28;20414;-74
2022/07/29 05:05:00;;;;;;;4.93;2.77;;;;;;;21.16;59.70;100077.13;5018697;28;20427;-73
2022/07/29 05:07:26;;;;;;;2.77;2.60;;;;;;;21.20;59.58;100072.59;5021767;28;20490;-74
2022/07/29 05:09:52;;;;;;;3.00;2.80;;;;;;;21.17;59.34;100075.97;5019897;28;20418;-73
2022/07/29 05:12:17;;;;;;;4.22;3.05;;;;;;;21.28;59.23;100078.41;5021296;28;20442;-74
2022/07/29 05:14:42;;;;;;;2.87;2.63;;;;;;;21.24;58.70;100072.75;5017957;28;20549;-74
2022/07/29 05:17:08;;;;;;;3.20;2.90;;;;;;;21.17;58.52;100080.72;5018829;28;20979;-76
2022/07/29 05:19:33;;;;;;;4.27;2.80;;;;;;;21.14;58.90;100075.84;5025518;28;20424;-76
2022/07/29 05:21:59;;;;;;;3.30;2.97;;;;;;;21.17;58.64;100075.97;5012183;28;20447;-75
2022/07/29 05:24:25;;;;;;;3.42;2.38;;;;;;;21.21;58.50;100079.72;5018455;28;20419;-74
2022/07/29 05:26:50;;;;;;;5.40;2.67;;;;;;;21.34;58.36;100085.41;5023056;28;20412;-74
2022/07/29 05:29:15;;;;;;;2.73;2.40;;;;;;;21.39;57.76;100082.47;5024430;28;20415;-74
2022/07/29 05:31:41;;;;;;;2.57;2.27;;;;;;;21.36;57.67;100086.69;5028588;28;20410;-74
2022/07/29 05:34:06;;;;;;;4.57;2.87;;;;;;;21.43;57.50;100089.78;5015831;28;20416;-74
2022/07/29 05:36:31;;;;;;;2.63;2.53;;;;;;;21.52;57.33;100087.81;5015529;28;20475;-74
2022/07/29 05:38:57;;;;;;;4.10;2.87;;;;;;;21.56;57.25;100083.28;5018063;28;20423;-74
2022/07/29 05:41:22;;;;;;;3.47;2.60;;;;;;;21.62;57.22;100090.22;5022470;28;20909;-74
2022/07/29 05:43:48;;;;;;;4.97;3.03;;;;;;;21.63;57.87;100091.03;5017544;28;20441;-74
2022/07/29 05:46:16;;;;;;;5.07;3.10;;;;;;;21.69;58.07;100100.78;5016170;28;20442;-74
2022/07/29 05:48:41;;;;;;;2.88;2.67;;;;;;;21.82;58.11;100096.19;5024009;28;20785;-74
2022/07/29 05:51:07;;;;;;;3.43;3.00;;;;;;;21.92;57.83;100106.91;5020967;28;20411;-74
2022/07/29 05:53:32;;;;;;;3.50;3.20;;;;;;;21.90;58.18;100095.41;5024948;28;20438;-73
2022/07/29 05:55:57;;;;;;;3.77;2.70;;;;;;;21.87;58.69;100101.53;5011983;28;20463;-74
2022/07/29 05:58:23;;;;;;;2.93;2.70;;;;;;;21.95;58.48;100111.78;5011550;28;20420;-74
2022/07/29 06:00:48;;;;;;;4.70;3.70;;;;;;;21.93;58.27;100108.53;5019082;28;20485;-74
2022/07/29 06:03:13;;;;;;;5.33;4.80;;;;;;;22.03;58.10;100116.47;5019338;28;20442;-74
2022/07/29 06:05:39;;;;;;;6.25;3.42;;;;;;;22.08;57.87;100124.56;5015925;28;20515;-74
2022/07/29 06:08:06;;;;;;;3.93;3.23;;;;;;;22.07;58.00;100120.16;5009351;28;20421;-74
2022/07/29 06:10:32;;;;;;;4.77;3.00;;;;;;;22.06;57.92;100133.16;5019810;28;20897;-75
2022/07/29 06:12:57;;;;;;;5.28;3.38;;;;;;;21.99;58.40;100140.34;5017421;28;20407;-75
2022/07/29 06:15:22;;;;;;;3.57;3.13;;;;;;;22.03;58.47;100136.56;5012184;28;20565;-74
2022/07/29 06:17:48;;;;;;;6.20;3.50;;;;;;;22.11;57.84;100143.22;5008113;28;20413;-74
2022/07/29 06:20:13;;;;;;;4.77;3.30;;;;;;;22.20;57.40;100139.28;5009275;28;20421;-73
2022/07/29 06:22:38;;;;;;;4.07;3.63;;;;;;;22.25;57.27;100143.81;5009801;28;20507;-73
2022/07/29 06:25:04;;;;;;;3.90;3.10;;;;;;;22.24;57.38;100142.19;5011162;28;20409;-74
2022/07/29 06:27:29;;;;;;;5.03;3.50;;;;;;;22.13;57.66;100147.25;5010341;28;20883;-74
2022/07/29 06:29:56;;;;;;;7.67;3.63;;;;;;;22.14;57.56;100137.84;5011096;28;20753;-73
2022/07/29 06:32:21;;;;;;;3.40;3.20;;;;;;;22.26;57.15;100139.13;5004120;28;20558;-73
2022/07/29 06:34:46;;;;;;;3.47;3.20;;;;;;;22.29;57.16;100142.03;5003546;28;20495;-73
2022/07/29 06:37:12;;;;;;;3.40;2.67;;;;;;;22.30;57.18;100135.34;5007878;28;20443;-73
2022/07/29 06:39:37;;;;;;;4.23;3.20;;;;;;;22.47;56.48;100143.56;5009005;28;20428;-73
2022/07/29 06:42:06;;;;;;;5.87;2.97;;;;;;;22.56;56.19;100144.34;5011253;28;20895;-72
2022/07/29 06:44:33;;;;;;;4.28;2.90;;;;;;;22.61;55.91;100151.63;5005914;28;20562;-73
2022/07/29 06:46:59;;;;;;;7.93;3.30;;;;;;;22.55;56.10;100145.50;5009791;28;20419;-72
2022/07/29 06:49:26;;;;;;;7.70;2.92;;;;;;;22.49;56.14;100152.31;5010464;28;20730;-73
2022/07/29 06:51:51;;;;;;;3.42;2.72;;;;;;;22.57;55.39;100151.50;5010380;28;20746;-72
2022/07/29 06:54:17;;;;;;;6.47;3.07;;;;;;;22.59;55.23;100154.72;5009447;28;20411;-73
2022/07/29 06:56:43;;;;;;;5.13;3.00;;;;;;;22.62;55.03;100161.56;5009956;28;20797;-72
2022/07/29 06:59:09;;;;;;;3.92;3.00;;;;;;;22.77;54.18;100163.78;5011258;28;20412;-73
2022/07/29 07:01:36;;;;;;;5.50;2.97;;;;;;;22.93;53.29;100159.28;5010525;28;20392;-72
2022/07/29 07:04:02;;;;;;;3.58;2.67;;;;;;;22.96;52.86;100158.63;5007352;28;20435;-72
2022/07/29 07:06:27;;;;;;;3.20;2.90;;;;;;;22.98;52.89;100156.34;5005950;28;20776;-73
2022/07/29 07:08:53;;;;;;;4.53;2.87;;;;;;;22.97;52.78;100156.66;5011667;28;20455;-73
2022/07/29 07:11:18;;;;;;;4.40;2.77;;;;;;;22.85;53.42;100154.63;5005846;28;20500;-72
2022/07/29 07:13:43;;;;;;;2.83;2.63;;;;;;;22.85;53.61;100162.13;5010645;28;20412;-73
2022/07/29 07:16:08;;;;;;;5.13;2.60;;;;;;;22.92;53.06;100173.47;5008456;28;20513;-73
2022/07/29 07:18:34;;;;;;;2.70;2.50;;;;;;;23.05;52.55;100172.41;5010916;28;20404;-73
2022/07/29 07:20:59;;;;;;;3.00;2.50;;;;;;;23.19;52.15;100171.00;5010326;28;20411;-72
2022/07/29 07:23:24;;;;;;;2.70;2.50;;;;;;;23.32;52.34;100177.41;5009550;28;20462;-73
2022/07/29 07:25:50;;;;;;;3.97;2.70;;;;;;;23.34;52.18;100174.31;5010257;28;20416;-73
2022/07/29 07:28:15;;;;;;;4.00;2.10;;;;;;;23.36;52.24;100177.53;5010666;28;20395;-75
2022/07/29 07:30:40;;;;;;;5.13;2.60;;;;;;;23.39;52.13;100176.88;5011198;28;20400;-73
2022/07/29 07:33:05;;;;;;;6.23;2.70;;;;;;;23.45;51.94;100176.34;5010172;28;20491;-73
2022/07/29 07:35:31;;;;;;;2.87;2.30;;;;;;;23.59;51.36;100173.31;5008475;28;20466;-74
2022/07/29 07:37:57;;;;;;;3.67;2.20;;;;;;;23.80;50.58;100174.13;5008494;28;20415;-73
2022/07/29 07:50:27;;;;;;;4.45;2.38;;;;;;;24.05;49.05;100175.00;5010319;28;20427;-73
2022/07/29 07:52:57;;;;;;;2.77;2.13;;;;;;;24.02;48.84;100172.94;5013207;28;20412;-73
2022/07/29 07:55:23;;;;;;;4.75;2.45;;;;;;;24.12;48.60;100172.53;5014764;28;20393;-73
2022/07/29 07:57:48;;;;;;;2.20;2.00;;;;;;;24.26;48.19;100173.84;5014951;28;20396;-73
2022/07/29 08:00:14;;;;;;;3.50;1.80;;;;;;;24.36;47.42;100169.81;5011850;28;20541;-73
2022/07/29 08:02:40;;;;;;;1.90;1.80;;;;;;;24.39;47.59;100179.41;5008379;28;20416;-73
2022/07/29 08:05:16;;;;;;;2.10;2.00;;;;;;;24.40;47.55;100175.50;5013141;28;20420;-73
2022/07/29 08:07:45;;;;;;;2.92;2.70;;;;;;;24.37;47.16;100174.19;5011619;28;20487;-73
2022/07/29 08:10:11;;;;;;;3.70;1.65;;;;;;;24.39;47.10;100171.91;5014621;28;20480;-74
2022/07/29 08:12:37;;;;;;;2.67;2.03;;;;;;;24.37;47.15;100167.88;5010304;28;20503;-74
2022/07/29 08:15:03;;;;;;;2.75;1.77;;;;;;;24.24;47.65;100176.13;5041720;28;20983;-74
2022/07/29 08:17:28;;;;;;;3.60;2.13;;;;;;;24.18;47.71;100183.03;5011850;28;20500;-73
2022/07/29 08:19:54;;;;;;;3.67;2.23;;;;;;;24.23;47.51;100185.63;5044536;28;20432;-73
2022/07/29 08:22:19;;;;;;;2.30;2.00;;;;;;;24.33;47.41;100191.84;5014367;28;20393;-73
2022/07/29 08:24:52;;;;;;;3.70;2.10;;;;;;;24.31;47.76;100188.59;5014357;28;20523;-73
2022/07/29 08:27:18;;;;;;;4.55;1.77;;;;;;;24.33;47.82;100186.31;5020398;28;20419;-73
2022/07/29 08:29:43;;;;;;;4.50;2.00;;;;;;;24.42;47.51;100182.28;5016843;28;20492;-74
2022/07/29 08:32:09;;;;;;;2.33;2.03;;;;;;;24.53;47.35;100182.66;5023171;28;20822;-73
2022/07/29 08:34:34;;;;;;;3.40;1.93;;;;;;;24.71;46.50;100181.28;5021103;28;20422;-73
2022/07/29 08:36:59;;;;;;;3.53;2.20;;;;;;;24.92;46.29;100184.78;5015316;28;20424;-73
2022/07/29 08:39:25;;;;;;;2.70;1.93;;;;;;;25.12;45.85;100183.03;5008794;28;20539;-73
2022/07/29 08:41:51;;;;;;;2.83;2.00;;;;;;;25.37;45.24;100183.78;5012752;28;20408;-73
2022/07/29 08:44:17;;;;;;;3.63;1.85;;;;;;;25.52;44.66;100188.66;5039572;28;20739;-73
2022/07/29 08:46:43;;;;;;;4.50;1.53;;;;;;;25.56;44.36;100193.13;5015762;28;20774;-73
2022/07/29 08:49:08;;;;;;;2.13;1.67;;;;;;;25.55;43.87;100188.78;5019381;28;20417;-74
2022/07/29 08:51:35;;;;;;;1.87;1.77;;;;;;;25.51;43.87;100190.63;5013923;28;20399;-73
2022/07/29 08:54:02;;;;;;;3.63;1.80;;;;;;;25.49;44.27;100192.88;5012655;28;20772;-73
2022/07/29 08:56:28;;;;;;;1.98;1.83;;;;;;;25.53;44.10;100193.03;5014594;28;20411;-73
2022/07/29 08:58:55;;;;;;;2.67;1.67;;;;;;;25.58;43.85;100190.84;5015086;28;20440;-73
2022/07/29 09:01:23;;;;;;;3.92;1.67;;;;;;;25.70;43.42;100193.56;5013073;28;20436;-74
2022/07/29 09:03:49;;;;;;;5.35;1.90;;;;;;;25.82;43.25;100187.16;5015111;28;20498;-73
2022/07/29 09:06:16;;;;;;;4.00;1.98;;;;;;;25.86;42.73;100185.28;5019013;28;20446;-73
2022/07/29 09:08:42;;;;;;;5.93;1.83;;;;;;;25.89;42.86;100187.34;5014525;28;20808;-74
2022/07/29 09:11:07;;;;;;;1.60;1.50;;;;;;;25.91;42.70;100185.03;5013043;28;20393;-73
2022/07/29 09:13:33;;;;;;;4.35;1.95;;;;;;;26.02;42.60;100188.91;5022305;28;20877;-73
2022/07/29 09:15:58;;;;;;;1.77;1.67;;;;;;;26.15;41.98;100184.09;5011191;28;20466;-74
2022/07/29 09:18:40;;;;;;;2.63;1.80;;;;;;;26.26;41.76;100182.47;5012849;28;20971;-73
2022/07/29 09:24:01;;;;;;;2.38;1.90;;;;;;;26.54;41.20;100191.53;5000908;28;20461;-74
2022/07/29 09:26:42;;;;;;;2.40;1.77;;;;;;;26.64;40.88;100182.66;5007949;28;20456;-73
2022/07/29 09:29:10;;;;;;;2.15;1.33;;;;;;;26.81;40.64;100182.31;5013070;28;20902;-73
2022/07/29 09:31:41;;;;;;;4.97;1.60;;;;;;;27.02;40.00;100184.81;5018605;28;20389;-73
2022/07/29 09:34:07;;;;;;;3.90;1.80;;;;;;;27.23;39.82;100176.94;5010615;28;20552;-73
2022/07/29 09:36:41;;;;;;;3.90;1.95;;;;;;;27.46;39.24;100179.91;5012053;28;20407;-73
2022/07/29 09:39:07;;;;;;;1.88;1.70;;;;;;;27.59;39.45;100180.56;5012841;28;20419;-73
2022/07/29 09:41:48;;;;;;;3.23;1.73;;;;;;;27.59;39.44;100184.16;5028135;28;20393;-73
2022/07/29 09:44:14;;;;;;;5.85;1.90;;;;;;;27.75;39.09;100184.09;5011728;28;20397;-73
2022/07/29 09:46:41;;;;;;;2.63;1.92;;;;;;;28.02;38.84;100182.25;5011115;28;20447;-74
2022/07/29 09:49:11;;;;;;;3.35;2.22;;;;;;;28.18;38.66;100177.41;5028060;28;20412;-74
2022/07/29 09:51:37;;;;;;;3.87;2.00;;;;;;;28.30;38.52;100171.66;5011116;28;20412;-74
2022/07/29 09:54:21;;;;;;;3.90;1.80;;;;;;;28.58;37.85;100168.56;5012841;28;20397;-73
2022/07/29 09:56:47;;;;;;;4.40;1.90;;;;;;;28.90;36.72;100169.91;5011248;28;20396;-73
2022/07/29 09:59:13;;;;;;;2.03;1.40;;;;;;;29.21;36.26;100175.16;5012401;28;20421;-74
2022/07/29 10:01:39;;;;;;;2.10;1.50;;;;;;;29.28;36.07;100174.50;5011395;28;20396;-74
2022/07/29 10:04:04;;;;;;;3.92;1.50;;;;;;;29.48;35.84;100169.56;5012518;28;20405;-73
2022/07/29 10:06:29;;;;;;;4.60;1.90;;;;;;;29.97;35.27;100172.22;5012780;28;20397;-73
2022/07/29 10:09:07;;;;;;;5.53;1.37;;;;;;;30.53;34.02;100178.41;5010484;28;20424;-73
2022/07/29 10:11:32;;;;;;;1.30;1.20;;;;;;;31.00;33.18;100168.44;5010433;28;20400;-73
2022/07/29 10:13:57;;;;;;;4.63;1.33;;;;;;;31.57;31.56;100173.22;5011861;28;20399;-73
2022/07/29 10:16:24;;;;;;;2.07;1.43;;;;;;;32.01;31.12;100177.78;5007179;28;20406;-74
2022/07/29 10:18:50;;;;;;;2.38;1.42;;;;;;;32.84;29.53;100172.72;5008211;28;20470;-73
2022/07/29 10:21:16;;;;;;;1.83;1.15;;;;;;;33.50;28.26;100173.00;5012239;28;20392;-74
2022/07/29 10:23:43;;;;;;;1.60;1.48;;;;;;;32.87;29.13;100171.91;5012288;28;20393;-74
2022/07/29 10:26:10;;;;;;;7.57;1.75;;;;;;;32.64;29.46;100161.09;5012334;28;20420;-74
2022/07/29 10:28:35;;;;;;;1.20;1.13;;;;;;;34.04;27.23;100158.34;5010929;28;20463;-74
2022/07/29 10:31:05;;;;;;;2.13;1.20;;;;;;;35.22;25.55;100150.59;5011269;28;20883;-73
2022/07/29 10:33:46;;;;;;;4.50;1.40;;;;;;;36.58;23.77;100154.06;5012289;28;20400;-74
2022/07/29 10:36:33;;;;;;;5.43;1.33;;;;;;;37.53;22.57;100154.38;5004601;28;20409;-74
2022/07/29 10:39:38;;;;;;;1.15;1.15;;;;;;;38.25;21.56;100153.19;5011174;28;20496;-74
2022/07/29 10:42:17;;;;;;;2.80;1.10;;;;;;;38.38;21.24;100144.81;4999204;28;21387;-74
2022/07/29 10:44:43;;;;;;;5.55;1.15;;;;;;;38.60;20.88;100143.03;5010693;28;20861;-74
2022/07/29 10:47:19;;;;;;;3.35;1.10;;;;;;;39.12;20.70;100147.81;5011928;28;20472;-74
2022/07/29 10:50:05;;;;;;;1.52;1.00;;;;;;;39.27;20.67;100149.81;5011142;28;20401;-74
2022/07/29 10:52:48;;;;;;;3.00;1.00;;;;;;;39.57;19.63;100150.59;5010649;28;20888;-74
2022/07/29 10:55:36;;;;;;;3.88;1.10;;;;;;;38.85;20.07;100154.59;5008133;28;20420;-74
2022/07/29 10:58:20;;;;;;;3.13;1.20;;;;;;;37.17;21.89;100155.06;5011616;28;20462;-75
2022/07/29 11:00:47;;;;;;;1.98;0.93;;;;;;;35.44;23.88;100149.13;5011745;28;20396;-73
2022/07/29 11:03:45;;;;;;;3.10;1.13;;;;;;;33.86;25.63;100154.81;5011760;28;20451;-73
2022/07/29 11:06:11;;;;;;;2.97;1.10;;;;;;;33.13;26.10;100149.03;5010592;28;21264;-74
2022/07/29 11:08:36;;;;;;;1.73;0.90;;;;;;;33.73;25.56;100146.06;5010623;28;20447;-74
2022/07/29 11:11:19;;;;;;;1.20;0.87;;;;;;;35.70;22.64;100147.66;5011743;28;20752;-74
2022/07/29 11:13:54;;;;;;;3.30;1.50;;;;;;;37.01;21.22;100145.69;5010985;28;20630;-74
2022/07/29 11:16:22;;;;;;;1.00;1.00;;;;;;;37.46;20.85;100151.66;5011031;28;20435;-74
2022/07/29 11:19:12;;;;;;;2.17;1.00;;;;;;;37.97;20.36;100144.56;5009931;28;20477;-74
2022/07/29 11:21:42;;;;;;;3.10;0.93;;;;;;;37.96;20.27;100149.44;5010873;28;20432;-74
2022/07/29 11:24:15;;;;;;;3.05;0.90;;;;;;;36.97;20.84;100147.72;5015097;28;20860;-74
2022/07/29 11:26:42;;;;;;;1.10;1.00;;;;;;;36.95;20.65;100151.00;5006625;28;20401;-75
2022/07/29 11:29:19;;;;;;;1.60;0.85;;;;;;;35.90;21.99;100145.75;5015499;28;20392;-74
2022/07/29 11:31:48;;;;;;;1.25;1.02;;;;;;;35.99;22.09;100148.88;5029087;28;20439;-74
2022/07/29 11:34:27;;;;;;;3.97;1.15;;;;;;;35.20;22.65;100139.78;5000457;28;20756;-74
2022/07/29 11:37:13;;;;;;;1.20;1.10;;;;;;;33.90;23.46;100138.75;5028187;28;20632;-74
2022/07/29 11:39:47;;;;;;;1.48;0.80;;;;;;;34.28;23.27;100143.34;5013879;28;20486;-74
2022/07/29 11:42:35;;;;;;;1.73;1.00;;;;;;;34.21;24.20;100143.41;5013072;28;20404;-72
2022/07/29 11:45:13;;;;;;;1.20;1.00;;;;;;;36.25;22.54;100139.66;5004756;28;20401;-74
2022/07/29 11:47:41;;;;;;;1.20;1.10;;;;;;;37.73;20.80;100136.16;5015130;28;20432;-72